< < Back
Terminal Aerodrome Forecast


Current Version              Previous Versions:   1  2  3  4  5  6  7  8  9  

Terminal Aerodrome Forecast

785
FTUS44 KMOB 251132
TAFMOB
TAF
KMOB 251132Z 2512/2612 04006KT P6SM VCSH SCT025 SCT060
     FM251600 11010G16KT P6SM VCTS BKN035CB
     FM252300 13008KT P6SM SCT025
     FM260900 10008KT P6SM VCSH BKN025=

Latest METAR

805
SAUS80 KWBC 252000
MTRMOB
METAR KMOB 251956Z 14012KT 10SM SCT045 BKN070 33/24 A2995 RMK AO2
RAE1857 SLP137 P0000 T03280244 $


USA.gov is the U.S. government's official web portal to all federal, state and local government web resources and services.